createdAt,value
2022-12-01T00:03:50.346Z,101875.40
2022-12-01T00:09:16.500Z,101876.80
2022-12-01T00:14:22.556Z,101874.60
2022-12-01T00:19:26.946Z,101875.40
2022-12-01T00:24:29.286Z,101880.40
2022-12-01T00:29:31.576Z,101883.00
2022-12-01T00:34:34.791Z,101884.00
2022-12-01T00:39:37.072Z,101882.60
2022-12-01T00:44:39.780Z,101879.20
2022-12-01T00:49:44.982Z,101878.60
2022-12-01T00:54:47.633Z,101874.40
2022-12-01T00:59:50.157Z,101872.40
2022-12-01T01:04:52.818Z,101871.40
2022-12-01T01:09:55.008Z,101869.60
2022-12-01T01:14:57.514Z,101870.60
2022-12-01T01:19:59.789Z,101861.60
2022-12-01T01:25:02.280Z,101860.80
2022-12-01T01:30:05.902Z,101860.00
2022-12-01T01:35:08.300Z,101856.40
2022-12-01T01:40:11.298Z,101851.80
2022-12-01T01:45:24.286Z,101853.40
2022-12-01T01:50:28.979Z,101850.80
2022-12-01T01:55:35.775Z,101852.80
2022-12-01T02:00:44.440Z,101845.40
2022-12-01T02:05:47.316Z,101846.00
2022-12-01T02:11:49.205Z,101839.80
2022-12-01T02:17:10.378Z,101839.00
2022-12-01T02:22:52.167Z,101837.40
2022-12-01T02:28:21.167Z,101848.40
2022-12-01T02:33:39.443Z,101850.00
2022-12-01T02:39:31.382Z,101851.00
2022-12-01T02:44:43.344Z,101852.40
2022-12-01T02:49:52.791Z,101855.20
2022-12-01T02:54:56.581Z,101853.00
2022-12-01T03:00:00.688Z,101852.00
2022-12-01T03:05:28.712Z,101853.20
2022-12-01T03:10:49.935Z,101851.80
2022-12-01T03:16:11.312Z,101850.20
2022-12-01T03:21:40.396Z,101848.00
2022-12-01T03:26:49.176Z,101844.80
2022-12-01T03:31:59.695Z,101851.00
2022-12-01T03:37:10.397Z,101849.60
2022-12-01T03:42:27.035Z,101852.60
2022-12-01T03:47:32.070Z,101856.40
2022-12-01T03:52:56.992Z,101849.80
2022-12-01T03:58:17.515Z,101852.20
2022-12-01T04:03:25.062Z,101853.00
2022-12-01T04:08:28.034Z,101855.80
2022-12-01T04:13:30.386Z,101858.60
2022-12-01T04:18:32.500Z,101851.20
2022-12-01T04:23:53.834Z,101849.80
2022-12-01T04:28:56.122Z,101845.80
2022-12-01T04:33:59.959Z,101843.40
2022-12-01T04:39:03.606Z,101844.00
2022-12-01T04:44:05.861Z,101842.40
2022-12-01T04:49:08.584Z,101846.40
2022-12-01T04:54:11.461Z,101848.60
2022-12-01T04:59:14.164Z,101849.40
2022-12-01T05:04:16.487Z,101853.00
2022-12-01T05:09:20.782Z,101848.40
2022-12-01T05:14:23.383Z,101852.40
2022-12-01T05:19:45.445Z,101848.80
2022-12-01T05:24:47.923Z,101853.60
2022-12-01T05:29:50.382Z,101856.80
2022-12-01T05:34:53.114Z,101855.60
2022-12-01T05:39:55.403Z,101856.00
2022-12-01T05:44:57.694Z,101855.40
2022-12-01T05:50:05.255Z,101859.80
2022-12-01T05:55:09.377Z,101861.00
2022-12-01T06:00:13.895Z,101859.60
2022-12-01T06:05:16.473Z,101865.20
2022-12-01T06:10:19.174Z,101864.80
2022-12-01T06:15:21.668Z,101868.80
2022-12-01T06:20:24.211Z,101865.20
2022-12-01T06:25:26.485Z,101863.40
2022-12-01T06:30:29.257Z,101864.80
2022-12-01T06:35:31.747Z,101872.20
2022-12-01T06:40:34.135Z,101873.60
2022-12-01T06:45:36.404Z,101874.80
2022-12-01T06:50:38.610Z,101877.40
2022-12-01T06:55:41.105Z,101875.20
2022-12-01T07:00:46.433Z,101873.20
2022-12-01T07:06:01.498Z,101871.00
2022-12-01T07:11:12.143Z,101866.60
2022-12-01T07:16:14.551Z,101863.80
2022-12-01T07:21:17.023Z,101875.40
2022-12-01T07:26:19.420Z,101877.60
2022-12-01T07:31:22.033Z,101875.20
2022-12-01T07:36:24.398Z,101879.60
2022-12-01T07:41:26.997Z,101881.60
2022-12-01T07:46:30.280Z,101890.20
2022-12-01T07:51:34.857Z,101878.60
2022-12-01T07:56:37.469Z,101881.00
2022-12-01T08:01:44.264Z,101877.20
2022-12-01T08:06:47.464Z,101876.60
2022-12-01T08:11:49.841Z,101877.00
2022-12-01T08:16:52.337Z,101873.20
2022-12-01T08:21:54.522Z,101876.80
2022-12-01T08:26:56.914Z,101882.40
2022-12-01T08:31:59.220Z,101881.80
2022-12-01T08:37:01.693Z,101873.80
2022-12-01T08:42:03.975Z,101878.20
2022-12-01T08:47:06.478Z,101880.60
2022-12-01T08:52:08.876Z,101883.80
2022-12-01T08:57:12.079Z,101879.40
2022-12-01T09:02:16.454Z,101883.60
2022-12-01T09:07:26.165Z,101887.40
2022-12-01T09:12:30.220Z,101881.20
2022-12-01T09:17:32.551Z,101884.80
2022-12-01T09:22:34.988Z,101882.40
2022-12-01T09:27:37.480Z,101882.40
2022-12-01T09:32:39.873Z,101872.20
2022-12-01T09:37:42.205Z,101870.00
2022-12-01T09:42:47.469Z,101860.20
2022-12-01T09:47:49.914Z,101860.60
2022-12-01T09:53:08.280Z,101854.80
2022-12-01T09:58:20.341Z,101851.80
2022-12-01T10:03:47.962Z,101844.40
2022-12-01T10:09:32.563Z,101850.60
2022-12-01T10:14:37.654Z,101844.00
2022-12-01T10:20:18.189Z,101847.20
2022-12-01T10:25:28.483Z,101848.40
2022-12-01T10:30:32.453Z,101843.80
2022-12-01T10:35:36.753Z,101841.40
2022-12-01T10:40:42.125Z,101835.60
2022-12-01T10:45:45.241Z,101841.00
2022-12-01T10:51:14.745Z,101837.40
2022-12-01T10:56:21.193Z,101833.00
2022-12-01T11:01:34.323Z,101832.00
2022-12-01T11:06:37.804Z,101833.80
2022-12-01T11:11:41.009Z,101836.80
2022-12-01T11:16:47.847Z,101829.80
2022-12-01T11:21:55.449Z,101828.60
2022-12-01T11:27:00.442Z,101826.40
2022-12-01T11:32:27.779Z,101824.60
2022-12-01T11:37:50.470Z,101826.20
2022-12-01T11:43:06.254Z,101821.80
2022-12-01T11:48:20.779Z,101817.80
2022-12-01T11:53:34.584Z,101814.40
2022-12-01T11:58:36.824Z,101810.20
2022-12-01T12:04:15.863Z,101808.00
2022-12-01T12:09:43.520Z,101806.00
2022-12-01T12:15:12.510Z,101804.00
2022-12-01T12:20:57.398Z,101803.00
2022-12-01T12:26:24.684Z,101807.80
2022-12-01T12:32:10.754Z,101801.40
2022-12-01T12:37:34.144Z,101796.60
2022-12-01T12:43:18.414Z,101797.40
2022-12-01T12:49:03.545Z,101794.80
2022-12-01T12:54:12.502Z,101789.20
2022-12-01T12:59:21.042Z,101780.80
2022-12-01T13:04:40.515Z,101778.00
2022-12-01T13:09:52.320Z,101770.60
2022-12-01T13:15:21.362Z,101773.40
2022-12-01T13:20:29.409Z,101771.60
2022-12-01T13:25:39.887Z,101765.60
2022-12-01T13:31:06.667Z,101762.00
2022-12-01T13:36:44.991Z,101763.80
2022-12-01T13:41:39.345Z,101762.40
2022-12-01T13:46:42.296Z,101763.00
2022-12-01T13:52:23.043Z,101767.80
2022-12-01T13:57:31.347Z,101771.80
2022-12-01T14:02:36.131Z,101770.00
2022-12-01T14:07:40.116Z,101766.60
2022-12-01T14:12:45.741Z,101763.60
2022-12-01T14:18:01.393Z,101771.40
2022-12-01T14:23:13.539Z,101764.60
2022-12-01T14:28:17.924Z,101754.80
2022-12-01T14:33:39.179Z,101753.20
2022-12-01T14:38:45.947Z,101750.00
2022-12-01T14:44:06.363Z,101746.80
2022-12-01T14:49:31.349Z,101748.00
2022-12-01T14:54:49.209Z,101745.20
2022-12-01T15:00:16.646Z,101748.20
2022-12-01T15:05:28.655Z,101745.40
2022-12-01T15:10:36.735Z,101745.80
2022-12-01T15:16:00.391Z,101743.40
2022-12-01T15:21:33.486Z,101742.00
2022-12-01T15:26:48.361Z,101734.20
2022-12-01T15:32:01.091Z,101742.40
2022-12-01T15:37:11.430Z,101739.80
2022-12-01T15:42:27.661Z,101748.80
2022-12-01T15:47:47.068Z,101741.40
2022-12-01T15:52:50.915Z,101737.20
2022-12-01T15:57:56.239Z,101739.00
2022-12-01T16:03:02.091Z,101741.00
2022-12-01T16:08:35.292Z,101732.40
2022-12-01T16:13:55.219Z,101735.80
2022-12-01T16:19:20.789Z,101733.20
2022-12-01T16:24:35.649Z,101732.40
2022-12-01T16:29:59.118Z,101737.80
2022-12-01T16:35:04.307Z,101741.80
2022-12-01T16:40:09.586Z,101743.60
2022-12-01T16:45:16.363Z,101750.00
2022-12-01T16:50:22.943Z,101748.20
2022-12-01T16:55:51.056Z,101749.80
2022-12-01T17:00:56.201Z,101754.80
2022-12-01T17:06:02.788Z,101743.60
2022-12-01T17:11:07.634Z,101755.80
2022-12-01T17:16:17.998Z,101755.20
2022-12-01T17:21:22.519Z,101758.60
2022-12-01T17:26:28.740Z,101752.40
2022-12-01T17:31:33.238Z,101748.40
2022-12-01T17:36:38.727Z,101746.40
2022-12-01T17:41:45.835Z,101734.00
2022-12-01T17:46:51.327Z,101734.80
2022-12-01T17:51:57.076Z,101729.40
2022-12-01T17:57:04.736Z,101735.00
2022-12-01T18:02:14.407Z,101735.80
2022-12-01T18:07:18.737Z,101734.00
2022-12-01T18:12:22.831Z,101735.00
2022-12-01T18:17:29.823Z,101728.80
2022-12-01T18:22:35.481Z,101723.80
2022-12-01T18:27:41.320Z,101722.60
2022-12-01T18:32:46.271Z,101727.60
2022-12-01T18:37:50.909Z,101730.60
2022-12-01T18:42:59.634Z,101735.20
2022-12-01T18:48:11.081Z,101729.20
2022-12-01T18:53:19.722Z,101729.80
2022-12-01T18:58:27.310Z,101736.40
2022-12-01T19:03:34.523Z,101736.80
2022-12-01T19:08:40.396Z,101728.40
2022-12-01T19:13:46.174Z,101725.20
2022-12-01T19:18:56.240Z,101727.60
2022-12-01T19:24:04.248Z,101730.20
2022-12-01T19:29:17.461Z,101738.60
2022-12-01T19:34:24.344Z,101735.80
2022-12-01T19:39:29.552Z,101736.40
2022-12-01T19:44:36.320Z,101736.40
2022-12-01T19:49:43.040Z,101734.40
2022-12-01T19:54:56.107Z,101730.40
2022-12-01T20:00:02.697Z,101733.40
2022-12-01T20:05:10.777Z,101735.20
2022-12-01T20:10:20.389Z,101737.60
2022-12-01T20:15:26.955Z,101742.80
2022-12-01T20:20:34.860Z,101737.20
2022-12-01T20:25:40.748Z,101733.80
2022-12-01T20:30:45.135Z,101734.80
2022-12-01T20:35:53.467Z,101727.80
2022-12-01T20:40:59.229Z,101736.00
2022-12-01T20:46:06.725Z,101740.60
2022-12-01T20:51:14.233Z,101736.80
2022-12-01T20:56:19.255Z,101737.60
2022-12-01T21:01:23.994Z,101740.00
2022-12-01T21:06:29.573Z,101737.60
2022-12-01T21:12:09.803Z,101738.80
2022-12-01T21:18:01.564Z,101744.80
2022-12-01T21:23:17.886Z,101752.60
2022-12-01T21:28:26.726Z,101746.80
2022-12-01T21:33:37.037Z,101750.00
2022-12-01T21:38:43.698Z,101751.20
2022-12-01T21:43:48.225Z,101741.60
2022-12-01T21:48:52.678Z,101748.40
2022-12-01T21:53:57.973Z,101744.40
2022-12-01T21:59:24.049Z,101753.00
2022-12-01T22:04:33.475Z,101749.60
2022-12-01T22:09:37.308Z,101746.40
2022-12-01T22:14:40.204Z,101743.40
2022-12-01T22:19:57.521Z,101740.60
2022-12-01T22:25:22.739Z,101740.00
2022-12-01T22:30:25.423Z,101738.40
2022-12-01T22:35:43.077Z,101735.80
2022-12-01T22:40:48.238Z,101734.40
2022-12-01T22:46:00.360Z,101736.00
2022-12-01T22:51:27.921Z,101727.60
2022-12-01T22:56:45.274Z,101727.40
2022-12-01T23:02:01.825Z,101720.00
2022-12-01T23:07:27.947Z,101726.40
2022-12-01T23:12:33.984Z,101714.60
2022-12-01T23:17:40.227Z,101711.80
2022-12-01T23:22:42.798Z,101713.00
2022-12-01T23:27:49.576Z,101718.80
2022-12-01T23:33:29.055Z,101711.80
2022-12-01T23:38:42.318Z,101712.80
2022-12-01T23:43:46.294Z,101705.40
2022-12-01T23:48:53.935Z,101704.20
2022-12-01T23:54:00.535Z,101701.60
2022-12-01T23:59:02.926Z,101706.00
